Tiptop, Virginia
Current Conditions -  °F | °C
As of 6:55 PM on Thursday 18 Dec 2014 (Local Time) from KJFZ Reporting Station
Overcast Overcast  
Wind Chill: 34°   Ceiling: 4400
Heat Index: 34°   Visibility: 10mi
Dew Point: 22°   Wind: 0mph
Humidity: 62%   Direction: NA
Pressure: 30.08"   Gusts: NA
Location:  37.1608°N, 81.5125°W
Report Text: KJFZ 182355Z AUTO 00000KT 10SM BKN044 BKN050 OVC075 01/M05 A3008 RMK AO2 T00101055 10037 20010
Loading
Personal Weather Stations






























Interactive Weather Map New forecast layout! Learn more

10-Day Weather Forecast

Advertisements
Track Severe Weather on mobile